Time;durP1;ratioP1;P1;durP2;ratioP2;P2;SDS_P1;SDS_P2;PMS_P1;PMS_P2;Temp;Humidity;BMP_temperature;BMP_pressure;BME280_temperature;BME280_humidity;BME280_pressure;Samples;Min_cycle;Max_cycle;Signal;HPM_P1;HPM_P2
2022/03/13 00:00:17;;;;;;;10.60;6.18;;;5.40;51.50;;;;;;5031030;28;20043;-43
2022/03/13 00:02:49;;;;;;;9.35;5.50;;;5.40;51.40;;;;;;5009734;28;20033;-42
2022/03/13 00:05:19;;;;;;;8.15;5.90;;;5.30;51.10;;;;;;5010072;28;20029;-44
2022/03/13 00:07:56;;;;;;;8.25;6.05;;;5.30;51.70;;;;;;5024476;28;20351;-43
2022/03/13 00:10:32;;;;;;;9.38;5.75;;;5.30;52.10;;;;;;5013558;28;20069;-44
2022/03/13 00:13:00;;;;;;;7.88;5.60;;;5.20;52.70;;;;;;5030320;28;20025;-44
2022/03/13 00:15:38;;;;;;;9.55;6.25;;;5.30;51.00;;;;;;5030078;28;20132;-42
2022/03/13 00:18:06;;;;;;;9.10;5.80;;;5.30;51.10;;;;;;5030454;28;20087;-44
2022/03/13 00:20:34;;;;;;;8.77;6.00;;;5.30;51.20;;;;;;5030729;28;20037;-44
2022/03/13 00:23:02;;;;;;;8.43;5.50;;;5.30;51.00;;;;;;5012888;28;20045;-44
2022/03/13 00:25:29;;;;;;;9.07;5.90;;;5.20;50.70;;;;;;5029724;28;20425;-44
2022/03/13 00:27:56;;;;;;;8.55;5.65;;;5.20;51.80;;;;;;5028907;28;20037;-44
2022/03/13 00:30:24;;;;;;;7.88;5.88;;;5.20;51.70;;;;;;5029774;28;20112;-43
2022/03/13 00:32:53;;;;;;;8.93;5.47;;;5.10;50.80;;;;;;5029828;28;20025;-44
2022/03/13 00:35:19;;;;;;;10.80;5.78;;;5.10;51.40;;;;;;5029851;28;20044;-44
2022/03/13 00:37:45;;;;;;;8.82;7.03;;;5.10;51.40;;;;;;5030102;28;20439;-44
2022/03/13 00:40:13;;;;;;;9.55;5.57;;;5.00;50.40;;;;;;5029618;28;20042;-42
2022/03/13 00:42:40;;;;;;;8.98;5.53;;;5.00;50.90;;;;;;5030185;28;20025;-42
2022/03/13 00:45:08;;;;;;;7.82;5.85;;;5.00;51.20;;;;;;5033064;28;20037;-44
2022/03/13 00:47:34;;;;;;;7.88;5.65;;;5.00;51.80;;;;;;5029697;28;20026;-42
2022/03/13 00:50:03;;;;;;;6.93;4.90;;;4.90;52.00;;;;;;5012086;28;20354;-42
2022/03/13 00:52:34;;;;;;;9.90;6.30;;;4.90;52.10;;;;;;5029182;28;20036;-43
2022/03/13 00:55:01;;;;;;;10.32;6.00;;;4.90;51.60;;;;;;5029434;28;20067;-47
2022/03/13 00:57:29;;;;;;;10.88;6.18;;;4.90;51.50;;;;;;5012261;28;20036;-43
2022/03/13 00:59:56;;;;;;;10.32;5.90;;;4.90;51.40;;;;;;5030066;28;20104;-42
2022/03/13 01:02:31;;;;;;;10.20;6.30;;;4.90;51.50;;;;;;5029728;28;20033;-43
2022/03/13 01:04:59;;;;;;;7.18;5.40;;;4.90;52.00;;;;;;5029200;28;20493;-43
2022/03/13 01:07:26;;;;;;;8.90;6.53;;;4.90;51.30;;;;;;5028942;28;20457;-43
2022/03/13 01:09:51;;;;;;;11.02;6.68;;;4.90;52.70;;;;;;4992350;28;20407;-43
2022/03/13 01:12:19;;;;;;;10.38;6.43;;;4.90;51.80;;;;;;5018979;28;20147;-44
2022/03/13 01:14:46;;;;;;;9.70;6.28;;;4.90;52.60;;;;;;5029475;28;20029;-44
2022/03/13 01:17:12;;;;;;;7.05;5.35;;;4.90;51.80;;;;;;5009068;28;20367;-43
2022/03/13 01:19:39;;;;;;;9.82;5.78;;;4.90;51.40;;;;;;5029036;28;20041;-43
2022/03/13 01:22:14;;;;;;;15.32;6.03;;;4.90;51.40;;;;;;5029537;28;20033;-44
2022/03/13 01:24:46;;;;;;;11.02;6.70;;;4.90;51.10;;;;;;5029325;28;20466;-43
2022/03/13 01:27:14;;;;;;;10.70;5.95;;;4.90;50.50;;;;;;4997341;28;20055;-43
2022/03/13 01:29:44;;;;;;;9.63;6.57;;;4.90;50.80;;;;;;5029111;28;20029;-44
2022/03/13 01:32:12;;;;;;;;;;;4.90;50.70;;;;;;5012357;28;20045;-44
2022/03/13 01:34:41;;;;;;;9.27;5.65;;;4.90;51.10;;;;;;5011893;28;19913;-43
2022/03/13 01:37:30;;;;;;;14.60;6.25;;;4.80;52.10;;;;;;5029012;28;20455;-43
2022/03/13 01:39:58;;;;;;;12.88;7.13;;;4.70;52.10;;;;;;5011599;28;20045;-46
2022/03/13 01:42:24;;;;;;;9.30;6.35;;;4.70;51.70;;;;;;4978818;28;20029;-44
2022/03/13 01:44:50;;;;;;;8.82;5.97;;;4.70;51.90;;;;;;5028547;28;20411;-43
2022/03/13 01:47:19;;;;;;;11.30;6.78;;;4.70;53.00;;;;;;5021514;28;20038;-44
2022/03/13 01:49:53;;;;;;;8.65;6.22;;;4.70;52.00;;;;;;5011479;28;20038;-43
2022/03/13 01:52:28;;;;;;;9.88;6.10;;;4.70;52.30;;;;;;5011830;28;20481;-43
2022/03/13 01:54:57;;;;;;;10.48;6.55;;;4.70;52.60;;;;;;4995212;28;20065;-43
2022/03/13 01:57:27;;;;;;;11.75;6.15;;;4.70;52.90;;;;;;5012165;28;20033;-44
2022/03/13 02:00:01;;;;;;;12.98;7.25;;;4.60;53.70;;;;;;5029548;28;20342;-45
2022/03/13 02:02:32;;;;;;;9.10;5.95;;;4.50;53.30;;;;;;5027826;28;20030;-42
2022/03/13 02:04:59;;;;;;;10.73;6.80;;;4.50;53.50;;;;;;5028113;28;20029;-43
2022/03/13 02:07:28;;;;;;;11.15;6.75;;;4.50;53.10;;;;;;5012119;28;20138;-43
2022/03/13 02:09:55;;;;;;;12.70;7.33;;;4.40;53.40;;;;;;4976299;28;20559;-42
2022/03/13 02:12:25;;;;;;;9.05;6.22;;;4.40;53.60;;;;;;5019241;28;20120;-44
2022/03/13 02:14:55;;;;;;;11.15;7.55;;;4.40;52.80;;;;;;5029681;28;20405;-43
2022/03/13 02:17:34;;;;;;;13.10;7.22;;;4.40;53.10;;;;;;5028967;28;20025;-43
2022/03/13 02:20:02;;;;;;;12.00;6.23;;;4.40;52.60;;;;;;4995671;28;20478;-45
2022/03/13 02:22:30;;;;;;;8.27;6.38;;;4.40;52.80;;;;;;4981580;28;20291;-44
2022/03/13 02:25:01;;;;;;;10.55;7.10;;;4.40;52.70;;;;;;4989601;28;20590;-43
2022/03/13 02:27:33;;;;;;;9.60;6.68;;;4.40;53.30;;;;;;5009691;28;20332;-43
2022/03/13 02:29:59;;;;;;;10.00;6.80;;;4.40;53.40;;;;;;5011857;28;20080;-45
2022/03/13 02:32:26;;;;;;;10.52;6.95;;;4.30;53.40;;;;;;5011919;28;20037;-45
2022/03/13 02:34:54;;;;;;;10.63;7.53;;;4.30;53.00;;;;;;5028921;28;20631;-43
2022/03/13 02:37:40;;;;;;;11.23;7.40;;;4.30;53.00;;;;;;4995099;28;20041;-42
2022/03/13 02:40:18;;;;;;;9.88;7.20;;;4.20;52.70;;;;;;5011009;28;20064;-43
2022/03/13 02:42:48;;;;;;;10.65;6.18;;;4.20;53.10;;;;;;5028513;28;20044;-43
2022/03/13 02:45:31;;;;;;;11.13;6.30;;;4.30;52.70;;;;;;5028539;28;20071;-42
2022/03/13 02:48:06;;;;;;;11.40;6.95;;;4.20;53.10;;;;;;5012419;28;20033;-45
2022/03/13 02:50:44;;;;;;;10.93;6.65;;;4.30;52.30;;;;;;5010397;28;20049;-45
2022/03/13 02:53:12;;;;;;;11.10;6.80;;;4.20;52.50;;;;;;5031862;28;20033;-42
2022/03/13 02:55:39;;;;;;;10.32;7.03;;;4.20;52.40;;;;;;5014996;28;20071;-46
2022/03/13 02:58:10;;;;;;;13.85;7.22;;;4.10;53.40;;;;;;5032352;28;20029;-42
2022/03/13 03:00:47;;;;;;;13.95;7.40;;;4.20;53.20;;;;;;4999332;28;20040;-43
2022/03/13 03:03:28;;;;;;;10.48;6.43;;;4.20;52.20;;;;;;5014670;28;20045;-44
2022/03/13 03:05:53;;;;;;;10.55;6.75;;;4.20;52.10;;;;;;5014746;28;20030;-44
2022/03/13 03:08:22;;;;;;;11.63;7.47;;;4.20;52.40;;;;;;5032160;28;20117;-42
2022/03/13 03:10:49;;;;;;;12.43;7.32;;;4.20;53.00;;;;;;5031173;28;20042;-42
2022/03/13 03:13:17;;;;;;;14.30;7.97;;;4.10;52.90;;;;;;5014793;28;20033;-43
2022/03/13 03:15:48;;;;;;;11.38;7.43;;;4.10;53.40;;;;;;5015288;28;20034;-42
2022/03/13 03:18:19;;;;;;;11.32;7.18;;;4.10;53.20;;;;;;5014743;28;20443;-42
2022/03/13 03:20:44;;;;;;;14.05;6.78;;;4.10;52.70;;;;;;5038615;28;20037;-44
2022/03/13 03:23:14;;;;;;;10.73;6.88;;;4.00;53.70;;;;;;5032135;28;20037;-43
2022/03/13 03:25:39;;;;;;;;;;;3.90;53.40;;;;;;5032518;28;20033;-43
2022/03/13 03:28:07;;;;;;;11.63;6.03;;;3.90;53.70;;;;;;5032093;28;19905;-43
2022/03/13 03:30:34;;;;;;;9.90;6.78;;;4.00;53.40;;;;;;5014310;28;20355;-45
2022/03/13 03:33:02;;;;;;;12.82;6.93;;;3.90;53.80;;;;;;5031822;28;20462;-44
2022/03/13 03:35:30;;;;;;;11.32;7.85;;;3.90;54.30;;;;;;4998312;28;20057;-42
2022/03/13 03:37:57;;;;;;;9.90;6.82;;;3.90;53.90;;;;;;5014206;28;20026;-43
2022/03/13 03:40:31;;;;;;;12.65;8.35;;;3.90;53.80;;;;;;5014440;28;20030;-45
2022/03/13 03:43:03;;;;;;;12.23;8.23;;;3.90;54.50;;;;;;5031680;28;20036;-44
2022/03/13 03:45:31;;;;;;;13.20;7.20;;;3.90;54.30;;;;;;5012794;28;20033;-43
2022/03/13 03:47:59;;;;;;;12.57;7.47;;;3.90;54.70;;;;;;5014363;28;20133;-43
2022/03/13 03:50:26;;;;;;;9.15;7.15;;;3.90;54.20;;;;;;5029499;28;20480;-42
2022/03/13 03:52:57;;;;;;;12.05;6.88;;;3.90;54.30;;;;;;5031537;28;20045;-45
2022/03/13 03:55:26;;;;;;;13.90;8.02;;;3.90;54.40;;;;;;5031107;28;20055;-43
2022/03/13 03:57:53;;;;;;;10.93;8.30;;;3.90;54.50;;;;;;5031107;28;20441;-44
2022/03/13 04:00:23;;;;;;;11.95;7.45;;;3.80;54.50;;;;;;5031244;28;20029;-43
2022/03/13 04:02:51;;;;;;;11.30;7.45;;;3.80;54.80;;;;;;4998073;28;20057;-45
2022/03/13 04:05:20;;;;;;;10.13;6.95;;;3.80;55.00;;;;;;5031234;28;20036;-45
2022/03/13 04:07:47;;;;;;;13.60;8.80;;;3.80;54.70;;;;;;5013725;28;20123;-43
2022/03/13 04:10:13;;;;;;;13.82;7.78;;;3.80;54.90;;;;;;5031106;28;20441;-44
2022/03/13 04:12:41;;;;;;;11.48;7.72;;;3.70;55.00;;;;;;5031194;28;20040;-43
2022/03/13 04:15:07;;;;;;;9.52;7.05;;;3.70;55.20;;;;;;5030909;28;20026;-43
2022/03/13 04:17:32;;;;;;;11.80;7.57;;;3.70;55.70;;;;;;5013706;28;20028;-43
2022/03/13 04:19:59;;;;;;;10.93;6.88;;;3.70;56.10;;;;;;4996903;28;20072;-42
2022/03/13 04:22:28;;;;;;;10.77;7.05;;;3.60;55.40;;;;;;5030921;28;20034;-42
2022/03/13 04:24:57;;;;;;;9.93;7.53;;;3.60;55.70;;;;;;5030987;28;20037;-42
2022/03/13 04:27:23;;;;;;;11.95;7.88;;;3.60;55.40;;;;;;5013035;28;20026;-43
2022/03/13 04:29:49;;;;;;;12.18;7.53;;;3.60;55.50;;;;;;5013516;28;20032;-44
2022/03/13 04:32:21;;;;;;;9.82;6.93;;;3.60;55.60;;;;;;5012974;28;20025;-44
2022/03/13 04:34:49;;;;;;;10.50;8.25;;;3.60;55.30;;;;;;5033947;28;20361;-44
2022/03/13 04:37:18;;;;;;;14.40;7.30;;;3.50;55.60;;;;;;5019984;28;20033;-42
2022/03/13 04:39:47;;;;;;;12.98;7.47;;;3.50;55.50;;;;;;5023192;28;20037;-42
2022/03/13 04:42:16;;;;;;;13.77;8.27;;;3.50;55.60;;;;;;5013136;28;20453;-43
2022/03/13 04:44:46;;;;;;;9.52;7.00;;;3.50;55.80;;;;;;5012680;28;20052;-43
2022/03/13 04:47:13;;;;;;;;;;;3.50;56.20;;;;;;5013782;28;20140;-42
2022/03/13 04:49:38;;;;;;;12.32;7.80;;;3.50;56.00;;;;;;5030275;28;19921;-46
2022/03/13 04:52:06;;;;;;;10.30;6.95;;;3.50;56.00;;;;;;5012980;28;20045;-45
2022/03/13 04:54:33;;;;;;;15.57;7.38;;;3.40;56.10;;;;;;5012773;28;20021;-45
2022/03/13 04:56:59;;;;;;;12.07;7.55;;;3.40;55.80;;;;;;5029682;28;20450;-45
2022/03/13 04:59:25;;;;;;;11.07;6.65;;;3.40;55.90;;;;;;5013183;28;20037;-44
2022/03/13 05:01:53;;;;;;;10.55;7.40;;;3.40;55.90;;;;;;5030193;28;20022;-44
2022/03/13 05:04:18;;;;;;;10.73;7.55;;;3.50;55.80;;;;;;5030433;28;20061;-44
2022/03/13 05:06:45;;;;;;;10.80;7.63;;;3.50;56.00;;;;;;5012282;28;20473;-42
2022/03/13 05:09:13;;;;;;;10.73;8.43;;;3.40;55.10;;;;;;5029457;28;20033;-42
2022/03/13 05:11:40;;;;;;;13.38;7.78;;;3.50;55.30;;;;;;5029925;28;20092;-42
2022/03/13 05:14:07;;;;;;;11.45;7.78;;;3.50;54.80;;;;;;5012453;28;20171;-43
2022/03/13 05:16:33;;;;;;;16.88;7.70;;;3.50;54.70;;;;;;5011245;28;20041;-44
2022/03/13 05:19:01;;;;;;;12.48;7.45;;;3.50;55.00;;;;;;5029869;28;20395;-42
2022/03/13 05:21:29;;;;;;;13.43;9.07;;;3.50;55.00;;;;;;5012183;28;20609;-45
2022/03/13 05:23:57;;;;;;;12.45;7.70;;;3.40;55.00;;;;;;5012579;28;20061;-45
2022/03/13 05:26:22;;;;;;;11.02;8.45;;;3.40;55.00;;;;;;5029749;28;20040;-43
2022/03/13 05:28:49;;;;;;;11.23;7.40;;;3.40;54.60;;;;;;5029881;28;20036;-45
2022/03/13 05:31:18;;;;;;;12.13;8.05;;;3.40;54.70;;;;;;5029512;28;20371;-47
2022/03/13 05:33:43;;;;;;;10.80;7.20;;;3.40;54.60;;;;;;5027040;28;20033;-42
2022/03/13 05:36:13;;;;;;;13.70;8.05;;;3.40;54.70;;;;;;5029478;28;20040;-44
2022/03/13 05:38:40;;;;;;;11.32;7.70;;;3.40;55.10;;;;;;5029698;28;20033;-45
2022/03/13 05:41:06;;;;;;;11.27;7.70;;;3.40;55.00;;;;;;5012158;28;20029;-43
2022/03/13 05:43:33;;;;;;;15.50;9.15;;;3.50;55.00;;;;;;5009332;28;20084;-42
2022/03/13 05:46:01;;;;;;;11.10;8.60;;;3.50;55.00;;;;;;5029815;28;20109;-43
2022/03/13 05:48:30;;;;;;;13.68;9.45;;;3.50;54.90;;;;;;5028523;28;20041;-45
2022/03/13 05:50:58;;;;;;;10.35;7.97;;;3.50;55.40;;;;;;5012500;28;20443;-48
2022/03/13 05:53:24;;;;;;;12.60;9.02;;;3.50;55.20;;;;;;5029579;28;20030;-49
2022/03/13 05:55:51;;;;;;;11.85;8.90;;;3.50;55.70;;;;;;4995799;28;20038;-43
2022/03/13 05:58:19;;;;;;;10.98;7.97;;;3.50;55.50;;;;;;5012838;28;20037;-43
2022/03/13 06:01:01;;;;;;;11.60;8.48;;;3.50;55.50;;;;;;5012696;28;20040;-43
2022/03/13 06:03:28;;;;;;;11.50;7.97;;;3.40;55.90;;;;;;5013751;28;20320;-42
2022/03/13 06:05:56;;;;;;;10.98;7.38;;;3.40;55.80;;;;;;5012013;28;20037;-42
2022/03/13 06:08:23;;;;;;;10.73;7.90;;;3.50;55.90;;;;;;5028637;28;20033;-45
2022/03/13 06:10:51;;;;;;;9.95;7.85;;;3.50;56.20;;;;;;5028941;28;20443;-44
2022/03/13 06:13:17;;;;;;;11.18;7.82;;;3.50;55.80;;;;;;5011530;28;20466;-45
2022/03/13 06:15:48;;;;;;;11.82;7.38;;;3.50;55.70;;;;;;5021119;28;20022;-48
2022/03/13 06:18:16;;;;;;;17.02;8.35;;;3.50;55.30;;;;;;5029412;28;20025;-48
2022/03/13 06:20:43;;;;;;;11.68;7.65;;;3.50;55.90;;;;;;5028818;28;20028;-44
2022/03/13 06:23:10;;;;;;;10.95;7.65;;;3.60;55.70;;;;;;5011284;28;20029;-47
2022/03/13 06:25:37;;;;;;;12.82;7.60;;;3.60;55.90;;;;;;5028506;28;20040;-45
2022/03/13 06:28:05;;;;;;;13.15;7.68;;;3.60;55.40;;;;;;5032511;28;20045;-45
2022/03/13 06:30:31;;;;;;;10.75;7.25;;;3.60;55.00;;;;;;5033059;28;20438;-45
2022/03/13 06:32:56;;;;;;;12.35;8.55;;;3.70;54.60;;;;;;5032605;28;20087;-47
2022/03/13 06:35:26;;;;;;;12.48;7.97;;;3.80;54.30;;;;;;5033097;28;20458;-45
2022/03/13 06:37:55;;;;;;;10.40;7.45;;;3.80;53.70;;;;;;5015556;28;20037;-45
2022/03/13 06:40:25;;;;;;;12.70;7.80;;;3.80;53.50;;;;;;5032514;28;20034;-46
2022/03/13 06:42:55;;;;;;;11.65;8.18;;;3.90;53.30;;;;;;5014952;28;20037;-45
2022/03/13 06:45:22;;;;;;;9.10;6.93;;;3.90;52.70;;;;;;5024328;28;20064;-44
2022/03/13 06:47:50;;;;;;;11.65;7.80;;;3.90;53.20;;;;;;5024206;28;20427;-43
2022/03/13 06:50:23;;;;;;;11.77;7.10;;;3.90;53.30;;;;;;5023225;28;20052;-43
2022/03/13 06:52:50;;;;;;;13.10;8.40;;;4.00;54.40;;;;;;5027104;28;20087;-46
2022/03/13 06:55:19;;;;;;;10.50;7.43;;;4.10;54.20;;;;;;4990756;28;20057;-43
2022/03/13 06:57:54;;;;;;;12.60;8.90;;;4.20;53.70;;;;;;5027945;28;20512;-44
2022/03/13 07:00:21;;;;;;;15.85;7.95;;;4.20;53.60;;;;;;4995058;28;20046;-43
2022/03/13 07:02:51;;;;;;;10.90;7.85;;;4.20;52.40;;;;;;5020094;28;20068;-42
2022/03/13 07:05:23;;;;;;;;;;;4.20;52.10;;;;;;5011544;28;20037;-44
2022/03/13 07:07:54;;;;;;;11.20;7.53;;;4.30;52.60;;;;;;5023207;28;19913;-45
2022/03/13 07:10:21;;;;;;;11.85;8.40;;;4.30;52.40;;;;;;5031249;28;20116;-44
2022/03/13 07:12:48;;;;;;;12.38;7.55;;;4.40;52.40;;;;;;5031971;28;20049;-43
2022/03/13 07:15:18;;;;;;;12.63;8.00;;;4.40;51.90;;;;;;5026389;28;20050;-42
2022/03/13 07:17:46;;;;;;;13.07;8.20;;;4.50;51.60;;;;;;5030185;28;20097;-43
2022/03/13 07:20:14;;;;;;;11.95;8.57;;;4.70;51.20;;;;;;5009984;28;20041;-42
2022/03/13 07:22:45;;;;;;;9.85;6.80;;;4.90;50.90;;;;;;5029882;28;20044;-46
2022/03/13 07:25:16;;;;;;;13.38;8.52;;;4.90;50.20;;;;;;5006678;28;20335;-42
2022/03/13 07:27:44;;;;;;;11.30;7.75;;;5.10;49.00;;;;;;5015167;28;20033;-47
2022/03/13 07:30:12;;;;;;;9.02;7.05;;;5.20;48.40;;;;;;5030361;28;20033;-43
2022/03/13 07:32:40;;;;;;;12.00;8.38;;;5.30;48.60;;;;;;5024555;28;20030;-43
2022/03/13 07:35:10;;;;;;;10.80;7.88;;;5.50;47.90;;;;;;5028770;28;20044;-44
2022/03/13 07:37:37;;;;;;;13.88;7.60;;;5.70;47.60;;;;;;5005737;28;20037;-44
2022/03/13 07:40:04;;;;;;;11.40;7.72;;;6.00;47.30;;;;;;5011263;28;20033;-49
2022/03/13 07:42:32;;;;;;;12.55;8.18;;;6.20;46.30;;;;;;5004491;28;20049;-44
2022/03/13 07:44:59;;;;;;;11.48;7.93;;;6.40;46.10;;;;;;5024877;28;20021;-44
2022/03/13 07:47:26;;;;;;;10.85;7.35;;;6.40;45.50;;;;;;5014200;28;20040;-43
2022/03/13 07:49:59;;;;;;;9.95;7.53;;;6.50;44.80;;;;;;5016220;28;20044;-43
2022/03/13 07:52:27;;;;;;;10.10;7.35;;;6.50;44.70;;;;;;5025197;28;20361;-44
2022/03/13 07:54:53;;;;;;;10.85;7.72;;;6.60;44.80;;;;;;5017985;28;20096;-47
2022/03/13 07:57:21;;;;;;;11.05;7.75;;;6.70;45.10;;;;;;5028576;28;20029;-47
2022/03/13 07:59:54;;;;;;;10.55;7.97;;;6.90;45.20;;;;;;5032113;28;20029;-46
2022/03/13 08:02:21;;;;;;;14.68;7.88;;;7.00;44.40;;;;;;5028883;28;20032;-44
2022/03/13 08:04:48;;;;;;;10.35;7.47;;;7.10;44.70;;;;;;5010357;28;20418;-45
2022/03/13 08:07:14;;;;;;;9.98;7.68;;;7.50;44.10;;;;;;5029979;28;20030;-43
2022/03/13 08:09:42;;;;;;;9.82;7.60;;;7.90;42.20;;;;;;5001253;28;20520;-43
2022/03/13 08:12:10;;;;;;;11.18;7.72;;;8.50;40.70;;;;;;5006928;28;20056;-43
2022/03/13 08:14:36;;;;;;;10.90;7.85;;;8.70;40.20;;;;;;5012005;28;20048;-45
2022/03/13 08:17:04;;;;;;;12.35;8.43;;;8.80;40.20;;;;;;5009951;28;20025;-47
2022/03/13 08:19:29;;;;;;;12.27;8.38;;;8.80;41.00;;;;;;5029184;28;20040;-44
2022/03/13 08:21:58;;;;;;;13.00;8.15;;;8.50;41.80;;;;;;5022146;28;20026;-45
2022/03/13 08:24:26;;;;;;;11.10;8.35;;;8.40;40.50;;;;;;5012383;28;20033;-45
2022/03/13 08:26:52;;;;;;;12.45;8.30;;;8.20;41.50;;;;;;5022282;28;20410;-50
2022/03/13 08:29:20;;;;;;;10.38;7.93;;;8.40;40.70;;;;;;5023882;28;20057;-46
2022/03/13 08:31:47;;;;;;;13.68;7.82;;;8.20;41.80;;;;;;5020927;28;20073;-44
2022/03/13 08:34:14;;;;;;;9.50;7.03;;;8.20;41.60;;;;;;5007132;28;20025;-45
2022/03/13 08:36:46;;;;;;;13.30;7.43;;;8.40;41.90;;;;;;5003266;28;20033;-49
2022/03/13 08:39:15;;;;;;;9.05;7.50;;;8.60;41.40;;;;;;5013930;28;20037;-42
2022/03/13 08:41:46;;;;;;;10.93;7.25;;;8.90;41.10;;;;;;5029717;28;20029;-43
2022/03/13 08:44:13;;;;;;;11.10;7.75;;;9.20;40.80;;;;;;5020000;28;20033;-43
2022/03/13 08:46:40;;;;;;;9.52;6.97;;;9.50;39.90;;;;;;5020698;28;20026;-43
2022/03/13 08:49:07;;;;;;;9.60;7.45;;;9.80;38.40;;;;;;4989789;28;20040;-43
2022/03/13 08:51:34;;;;;;;10.50;7.85;;;9.70;37.70;;;;;;5020207;28;20096;-43
2022/03/13 08:53:59;;;;;;;10.80;8.38;;;9.80;38.70;;;;;;5021635;28;20155;-43
2022/03/13 08:56:28;;;;;;;9.85;7.93;;;9.80;38.60;;;;;;5003604;28;20181;-44
2022/03/13 08:58:55;;;;;;;10.00;7.43;;;9.90;38.90;;;;;;5008370;28;20037;-44
2022/03/13 09:01:24;;;;;;;11.52;7.68;;;9.90;39.00;;;;;;4989882;28;20050;-43
2022/03/13 09:03:53;;;;;;;12.90;8.48;;;9.90;38.40;;;;;;5029559;28;20025;-45
2022/03/13 09:06:19;;;;;;;11.90;8.45;;;9.90;37.40;;;;;;5030437;28;20037;-45
2022/03/13 09:08:47;;;;;;;11.15;8.13;;;9.90;38.60;;;;;;5012106;28;20032;-47
2022/03/13 09:11:17;;;;;;;9.48;7.03;;;9.90;38.00;;;;;;4993084;28;20080;-44
2022/03/13 09:13:44;;;;;;;9.88;7.07;;;9.80;37.60;;;;;;5028853;28;20059;-45
2022/03/13 09:16:12;;;;;;;11.20;8.55;;;9.90;38.10;;;;;;5012352;28;20498;-42
2022/03/13 09:18:39;;;;;;;10.43;7.72;;;10.30;39.30;;;;;;5012789;28;20029;-45
2022/03/13 09:21:06;;;;;;;10.10;7.72;;;10.50;38.20;;;;;;5029895;28;20035;-42
2022/03/13 09:23:32;;;;;;;12.32;7.78;;;10.70;38.30;;;;;;5030120;28;20467;-46
2022/03/13 09:26:01;;;;;;;12.82;8.05;;;10.80;37.70;;;;;;5029882;28;20042;-42
2022/03/13 09:28:29;;;;;;;9.02;7.25;;;10.90;36.60;;;;;;5015281;28;20363;-42
2022/03/13 09:30:59;;;;;;;11.98;7.25;;;10.90;36.00;;;;;;5028739;28;20021;-43
2022/03/13 09:33:31;;;;;;;10.93;7.30;;;10.80;35.90;;;;;;5025337;28;20107;-42
2022/03/13 09:35:59;;;;;;;10.35;7.65;;;10.50;36.20;;;;;;5034120;28;20459;-47
2022/03/13 09:38:27;;;;;;;11.63;7.20;;;10.50;37.20;;;;;;5027193;28;20041;-42
2022/03/13 09:40:55;;;;;;;9.07;6.82;;;10.50;36.40;;;;;;5033005;28;20066;-43
2022/03/13 09:43:22;;;;;;;12.27;7.35;;;10.50;37.00;;;;;;5029471;28;20510;-45
2022/03/13 09:45:50;;;;;;;8.75;7.13;;;10.60;36.00;;;;;;5040794;28;20107;-42
2022/03/13 09:48:20;;;;;;;11.82;8.05;;;10.60;36.80;;;;;;5015278;28;20040;-43
2022/03/13 09:50:46;;;;;;;9.40;7.70;;;10.70;36.10;;;;;;5021499;28;20112;-42
2022/03/13 09:53:13;;;;;;;11.50;7.65;;;10.50;35.20;;;;;;4991547;28;20133;-42
2022/03/13 09:55:40;;;;;;;12.23;7.65;;;10.30;35.40;;;;;;5022554;28;20410;-43
2022/03/13 09:58:11;;;;;;;14.18;7.65;;;10.20;36.60;;;;;;5029308;28;20017;-43
2022/03/13 10:00:40;;;;;;;10.23;7.15;;;10.10;36.40;;;;;;5031249;28;20044;-44
2022/03/13 10:03:08;;;;;;;12.90;8.90;;;10.10;36.30;;;;;;5018688;28;20120;-45
2022/03/13 10:05:50;;;;;;;10.60;7.40;;;10.20;37.20;;;;;;5017511;28;20057;-42
2022/03/13 10:08:17;;;;;;;10.02;7.18;;;10.20;37.70;;;;;;5007231;28;20092;-44
2022/03/13 10:11:04;;;;;;;11.55;7.50;;;10.10;37.00;;;;;;5014737;28;20469;-45
2022/03/13 10:13:40;;;;;;;12.10;7.70;;;9.90;37.00;;;;;;5032839;28;20123;-44
2022/03/13 10:16:26;;;;;;;12.20;7.65;;;9.90;37.50;;;;;;5026334;28;20068;-43
2022/03/13 10:18:54;;;;;;;10.48;7.90;;;10.00;37.20;;;;;;5026084;28;20049;-43
2022/03/13 10:21:21;;;;;;;10.07;7.55;;;10.00;38.20;;;;;;5013447;28;20041;-44
2022/03/13 10:23:50;;;;;;;9.48;7.68;;;9.90;37.60;;;;;;5014665;28;20030;-43
2022/03/13 10:26:17;;;;;;;;;;;10.00;37.80;;;;;;5032184;28;20086;-42
2022/03/13 10:28:44;;;;;;;10.18;7.85;;;10.20;37.50;;;;;;5031413;28;19921;-43
2022/03/13 10:31:17;;;;;;;9.82;7.72;;;10.30;38.60;;;;;;5017791;28;20033;-43
2022/03/13 10:33:42;;;;;;;10.80;8.35;;;10.40;38.10;;;;;;5015119;28;20116;-43
2022/03/13 10:36:17;;;;;;;11.73;7.72;;;10.40;37.60;;;;;;5032535;28;20507;-43
2022/03/13 10:38:55;;;;;;;12.25;8.00;;;10.60;38.70;;;;;;5030653;28;20676;-43
2022/03/13 10:41:42;;;;;;;10.20;7.13;;;10.70;38.60;;;;;;5000069;28;20351;-43
2022/03/13 10:44:18;;;;;;;11.50;7.95;;;10.90;37.60;;;;;;5008632;28;20130;-43
2022/03/13 10:46:47;;;;;;;10.68;8.05;;;11.10;37.60;;;;;;5030718;28;20108;-44
2022/03/13 10:49:53;;;;;;;10.98;7.60;;;11.30;37.00;;;;;;5024511;28;20125;-43
2022/03/13 10:52:45;;;;;;;11.30;8.45;;;11.40;37.80;;;;;;5021369;28;20045;-45
2022/03/13 10:55:26;;;;;;;10.13;7.90;;;11.40;36.00;;;;;;5021611;28;20021;-43
2022/03/13 10:57:59;;;;;;;8.88;7.25;;;11.20;36.80;;;;;;5030438;28;20025;-44
2022/03/13 11:00:31;;;;;;;10.70;8.40;;;11.20;36.30;;;;;;5028316;28;20043;-44
2022/03/13 11:03:17;;;;;;;10.73;7.32;;;11.20;37.90;;;;;;5008972;28;20128;-45
2022/03/13 11:05:43;;;;;;;10.63;7.95;;;11.00;36.90;;;;;;5032135;28;20040;-43
2022/03/13 11:08:10;;;;;;;10.05;8.05;;;11.00;37.20;;;;;;5032085;28;20454;-45
2022/03/13 11:10:41;;;;;;;11.90;8.43;;;11.30;36.90;;;;;;5030418;28;20423;-45
2022/03/13 11:13:07;;;;;;;9.80;7.53;;;11.30;36.70;;;;;;5025902;28;20053;-45
2022/03/13 11:15:35;;;;;;;16.73;9.38;;;11.50;38.20;;;;;;4995620;28;20116;-45
2022/03/13 11:18:09;;;;;;;13.27;8.20;;;11.70;37.40;;;;;;5032155;28;20030;-47
2022/03/13 11:20:39;;;;;;;11.18;8.15;;;11.90;35.50;;;;;;5031247;28;20034;-47
2022/03/13 11:23:08;;;;;;;10.70;8.43;;;12.20;35.40;;;;;;5030715;28;20069;-43
2022/03/13 11:25:40;;;;;;;10.52;8.05;;;12.20;35.10;;;;;;5013076;28;20121;-48
2022/03/13 11:28:07;;;;;;;10.40;8.13;;;12.20;35.70;;;;;;4988881;28;20038;-43
2022/03/13 11:30:36;;;;;;;16.13;9.13;;;12.20;34.70;;;;;;5005918;28;20052;-47
2022/03/13 11:33:03;;;;;;;9.48;7.72;;;12.00;34.60;;;;;;5030024;28;20054;-45
2022/03/13 11:35:35;;;;;;;11.48;8.75;;;12.00;35.10;;;;;;5014097;28;20563;-43
2022/03/13 11:38:07;;;;;;;10.15;7.45;;;11.90;35.90;;;;;;5030866;28;20028;-44
2022/03/13 11:40:39;;;;;;;11.25;8.77;;;12.20;36.60;;;;;;5012190;28;20033;-43
2022/03/13 11:43:19;;;;;;;9.88;7.95;;;12.30;35.50;;;;;;4980556;28;20120;-44
2022/03/13 11:46:03;;;;;;;9.50;8.07;;;12.30;34.90;;;;;;5009166;28;20048;-43
2022/03/13 11:48:48;;;;;;;17.35;9.23;;;12.20;34.80;;;;;;5030434;28;20029;-43
2022/03/13 11:51:29;;;;;;;10.45;7.90;;;12.00;34.90;;;;;;5030566;28;20025;-44
2022/03/13 11:54:00;;;;;;;10.07;8.30;;;12.00;34.70;;;;;;5029513;28;20029;-43
2022/03/13 11:56:29;;;;;;;10.98;7.82;;;11.90;34.60;;;;;;5014793;28;20037;-43
2022/03/13 11:59:12;;;;;;;8.77;7.88;;;11.70;34.60;;;;;;4996018;28;20466;-43
2022/03/13 12:01:39;;;;;;;9.70;7.25;;;11.70;34.50;;;;;;5029424;28;20056;-43
2022/03/13 12:04:13;;;;;;;10.55;8.07;;;11.60;34.50;;;;;;4994431;28;20044;-43
2022/03/13 12:06:46;;;;;;;10.45;8.43;;;11.70;34.60;;;;;;5028973;28;20056;-43
2022/03/13 12:09:37;;;;;;;10.57;8.10;;;11.70;34.10;;;;;;5029134;28;20043;-43
2022/03/13 12:12:08;;;;;;;13.30;7.68;;;11.70;34.40;;;;;;5028435;28;20049;-42
2022/03/13 12:15:06;;;;;;;10.77;8.27;;;11.80;34.90;;;;;;5030298;28;20059;-42
2022/03/13 12:17:55;;;;;;;11.02;7.57;;;11.90;35.50;;;;;;5025950;28;20273;-44
2022/03/13 12:20:24;;;;;;;11.50;7.97;;;12.10;35.30;;;;;;5028106;28;20442;-43
2022/03/13 12:23:00;;;;;;;10.93;8.30;;;12.20;34.80;;;;;;5015083;28;20040;-43
2022/03/13 12:25:42;;;;;;;8.88;7.18;;;12.30;34.40;;;;;;5020975;28;20383;-45
2022/03/13 12:28:10;;;;;;;8.60;7.22;;;12.40;34.50;;;;;;5029809;28;20025;-43
2022/03/13 12:30:37;;;;;;;10.75;8.73;;;12.50;33.40;;;;;;5030186;28;20044;-44
2022/03/13 12:33:05;;;;;;;9.25;6.82;;;12.50;33.10;;;;;;5023464;28;20041;-46
2022/03/13 12:35:32;;;;;;;10.90;7.68;;;12.50;33.40;;;;;;5012652;28;20099;-45
2022/03/13 12:38:01;;;;;;;10.40;8.82;;;12.50;34.80;;;;;;5030216;28;20029;-44
2022/03/13 12:40:31;;;;;;;9.80;8.00;;;12.50;34.30;;;;;;5032044;28;20026;-45
2022/03/13 12:43:00;;;;;;;9.93;7.53;;;12.60;35.10;;;;;;5012473;28;20040;-45
2022/03/13 12:45:51;;;;;;;10.80;8.40;;;12.70;34.40;;;;;;5107009;27;20446;-44
2022/03/13 12:48:19;;;;;;;11.25;8.18;;;12.60;34.00;;;;;;5105302;28;20036;-44
2022/03/13 12:50:48;;;;;;;11.77;8.25;;;12.70;35.00;;;;;;5106995;28;20024;-44
2022/03/13 12:53:29;;;;;;;10.80;8.32;;;12.70;34.10;;;;;;5105648;28;20020;-45
2022/03/13 12:55:56;;;;;;;9.43;7.13;;;12.80;34.70;;;;;;5107429;28;20082;-45
2022/03/13 12:58:46;;;;;;;8.75;6.72;;;12.80;34.00;;;;;;5107218;28;20024;-44
2022/03/13 13:01:20;;;;;;;12.20;7.25;;;12.90;33.20;;;;;;5085883;28;20378;-46